Time;durP1;ratioP1;P1;durP2;ratioP2;P2;SDS_P1;SDS_P2;PMS_P1;PMS_P2;Temp;Humidity;BMP_temperature;BMP_pressure;BME280_temperature;BME280_humidity;BME280_pressure;Samples;Min_cycle;Max_cycle;Signal;HPM_P1;HPM_P2
2023/03/02 00:01:23;;;;;;;0.10;0.10;;;;;;;-3.61;75.29;98977.69;5010764;28;20053;-74
2023/03/02 00:03:49;;;;;;;0.10;0.10;;;;;;;-3.57;75.30;98978.13;5027417;28;20049;-73
2023/03/02 00:06:16;;;;;;;0.10;0.10;;;;;;;-3.62;75.07;98975.22;5021265;28;20049;-70
2023/03/02 00:08:43;;;;;;;0.10;0.10;;;;;;;-3.63;75.24;98982.41;5044335;28;20048;-69
2023/03/02 00:11:10;;;;;;;0.10;0.10;;;;;;;-3.63;75.23;98985.09;5013272;28;20056;-69
2023/03/02 00:13:37;;;;;;;0.10;0.10;;;;;;;-3.58;75.09;99000.53;5039740;28;20103;-70
2023/03/02 00:16:06;;;;;;;0.10;0.10;;;;;;;-3.74;74.61;98975.00;5020658;28;20067;-73
2023/03/02 00:18:32;;;;;;;0.10;0.10;;;;;;;-3.60;75.13;98991.88;5028771;28;20075;-74
2023/03/02 00:20:58;;;;;;;0.10;0.10;;;;;;;-3.59;74.72;98981.00;5030528;28;20037;-74
2023/03/02 00:23:24;;;;;;;0.10;0.10;;;;;;;-3.64;74.66;98975.44;5043000;28;20057;-74
2023/03/02 00:25:51;;;;;;;0.10;0.10;;;;;;;-3.67;74.87;98986.53;5023498;28;20169;-73
2023/03/02 00:28:17;;;;;;;0.10;0.10;;;;;;;-3.66;74.89;98982.00;5015218;28;20115;-70
2023/03/02 00:30:43;;;;;;;0.10;0.10;;;;;;;-3.68;74.85;98986.72;5041211;28;21030;-70
2023/03/02 00:33:11;;;;;;;0.00;0.00;;;;;;;-3.62;74.64;98978.72;5010086;28;20045;-69
2023/03/02 00:35:37;;;;;;;0.00;0.00;;;;;;;-3.58;74.48;98987.16;5046265;28;20044;-70
2023/03/02 00:38:03;;;;;;;0.10;0.10;;;;;;;-3.56;73.85;98991.28;5034255;28;20053;-69
2023/03/02 00:40:29;;;;;;;0.10;0.10;;;;;;;-3.60;73.71;98997.22;5009732;28;20138;-69
2023/03/02 00:42:55;;;;;;;0.10;0.10;;;;;;;-3.62;73.84;99010.78;5045954;28;20072;-69
2023/03/02 00:45:21;;;;;;;0.13;0.13;;;;;;;-3.62;73.72;99004.63;5025201;28;20621;-70
2023/03/02 00:47:47;;;;;;;0.10;0.10;;;;;;;-3.57;73.64;99010.19;5010735;28;20406;-69
2023/03/02 00:50:15;;;;;;;0.10;0.10;;;;;;;-3.56;73.38;99015.34;5044547;28;20056;-69
2023/03/02 00:52:41;;;;;;;;;;;;;;;-3.53;73.45;99015.97;5028460;28;20079;-69
2023/03/02 00:55:08;;;;;;;0.10;0.10;;;;;;;-3.53;73.35;99026.66;5027301;28;20506;-69
2023/03/02 00:57:34;;;;;;;0.10;0.10;;;;;;;-3.47;72.64;99023.16;5035530;28;20060;-70
2023/03/02 01:00:00;;;;;;;0.10;0.10;;;;;;;-3.46;72.10;99019.47;5043829;28;20455;-70
2023/03/02 01:02:32;;;;;;;0.10;0.10;;;;;;;-3.39;71.91;99039.03;5012073;28;20148;-70
2023/03/02 01:04:59;;;;;;;0.10;0.10;;;;;;;-3.37;71.79;99033.47;5017247;28;20106;-70
2023/03/02 01:07:27;;;;;;;0.10;0.10;;;;;;;-3.38;71.50;99024.63;5015878;28;20159;-70
2023/03/02 01:09:53;;;;;;;0.10;0.10;;;;;;;-3.42;70.87;99023.41;5041960;28;20053;-70
2023/03/02 01:12:19;;;;;;;0.10;0.10;;;;;;;-3.59;70.15;99017.59;5016729;28;20140;-70
2023/03/02 01:14:50;;;;;;;0.10;0.10;;;;;;;-3.75;69.75;99005.41;5005577;28;20096;-69
2023/03/02 01:17:20;;;;;;;0.10;0.10;;;;;;;-3.87;69.18;99013.16;5028910;28;20044;-70
2023/03/02 01:19:47;;;;;;;0.10;0.10;;;;;;;-3.94;69.42;99015.00;5001394;28;20053;-70
2023/03/02 01:22:13;;;;;;;0.10;0.10;;;;;;;-4.00;69.08;99014.75;5007972;28;20054;-70
2023/03/02 01:24:41;;;;;;;0.10;0.10;;;;;;;-3.92;68.81;99021.78;5010687;28;20060;-69
2023/03/02 01:27:07;;;;;;;0.13;0.13;;;;;;;-3.93;68.36;99019.31;5021795;28;20119;-73
2023/03/02 01:29:33;;;;;;;0.10;0.10;;;;;;;-3.85;67.96;99036.00;5034662;28;20049;-73
2023/03/02 01:31:59;;;;;;;0.10;0.10;;;;;;;-3.72;67.99;99029.06;5001336;28;20656;-73
2023/03/02 01:34:25;;;;;;;0.10;0.10;;;;;;;-3.65;67.49;99029.91;5018885;28;20063;-73
2023/03/02 01:36:51;;;;;;;0.10;0.10;;;;;;;-3.58;67.02;99021.91;5026056;28;20053;-73
2023/03/02 01:39:21;;;;;;;0.10;0.10;;;;;;;-3.59;66.36;99044.31;5008929;28;20525;-74
2023/03/02 01:41:50;;;;;;;0.10;0.10;;;;;;;-3.57;65.73;99021.72;5015616;28;20067;-73
2023/03/02 01:44:41;;;;;;;0.10;0.10;;;;;;;-3.60;65.54;99013.25;5026960;28;20060;-74
2023/03/02 01:47:15;;;;;;;0.10;0.10;;;;;;;-3.61;65.56;99016.97;5042048;28;20041;-73
2023/03/02 01:49:52;;;;;;;0.10;0.10;;;;;;;-3.60;65.52;99015.94;5017056;28;20049;-74
2023/03/02 01:52:19;;;;;;;0.10;0.10;;;;;;;-3.60;65.38;99024.75;5044717;28;20041;-73
2023/03/02 01:54:48;;;;;;;0.10;0.10;;;;;;;-3.62;65.25;99020.66;5008560;28;20052;-73
2023/03/02 01:57:21;;;;;;;0.10;0.10;;;;;;;-3.63;65.14;99035.06;4989851;28;20521;-73
2023/03/02 01:59:52;;;;;;;0.10;0.10;;;;;;;-3.63;64.67;99037.72;5020721;28;20102;-73
2023/03/02 02:02:18;;;;;;;0.10;0.10;;;;;;;-3.62;64.55;99040.19;5035389;28;20065;-73
2023/03/02 02:04:47;;;;;;;0.10;0.10;;;;;;;-3.65;64.52;99045.94;5026375;28;20057;-72
2023/03/02 02:07:14;;;;;;;0.10;0.10;;;;;;;-3.64;64.67;99052.13;5042721;28;20053;-69
2023/03/02 02:09:44;;;;;;;0.10;0.10;;;;;;;-3.73;64.68;99054.13;5028359;28;20166;-69
2023/03/02 02:12:12;;;;;;;0.10;0.10;;;;;;;-3.74;64.16;99052.50;5016443;28;20144;-70
2023/03/02 02:14:41;;;;;;;0.10;0.10;;;;;;;-3.76;63.90;99055.34;5010839;28;20270;-70
2023/03/02 02:17:07;;;;;;;0.20;0.10;;;;;;;-3.81;63.82;99052.47;5025097;28;20057;-70
2023/03/02 02:19:46;;;;;;;0.10;0.10;;;;;;;-3.83;64.07;99053.69;5026311;28;20045;-69
2023/03/02 02:22:16;;;;;;;0.10;0.10;;;;;;;-3.87;63.55;99048.75;5014678;28;20299;-70
2023/03/02 02:24:48;;;;;;;0.10;0.10;;;;;;;-3.89;63.12;99065.97;5008098;28;20139;-70
2023/03/02 02:27:16;;;;;;;0.10;0.10;;;;;;;-3.92;63.27;99066.38;5007962;28;20521;-70
2023/03/02 02:29:46;;;;;;;0.10;0.10;;;;;;;-3.88;63.35;99059.63;5025394;28;20051;-70
2023/03/02 02:32:16;;;;;;;0.10;0.10;;;;;;;-3.84;63.20;99063.53;5008166;28;20050;-69
2023/03/02 02:34:46;;;;;;;0.20;0.20;;;;;;;-3.86;63.21;99045.03;5029443;28;20142;-69
2023/03/02 02:37:19;;;;;;;0.10;0.10;;;;;;;-3.84;63.29;99050.16;5008991;28;20048;-70
2023/03/02 02:39:48;;;;;;;0.10;0.10;;;;;;;-3.82;63.39;99042.81;5009886;28;20053;-70
2023/03/02 02:42:20;;;;;;;0.10;0.10;;;;;;;-3.84;63.81;99044.81;5026870;28;20076;-70
2023/03/02 02:44:46;;;;;;;0.10;0.10;;;;;;;-3.81;63.76;99046.28;4993491;28;20051;-70
2023/03/02 02:47:16;;;;;;;0.10;0.10;;;;;;;-3.77;63.89;99056.38;5012147;28;20049;-68
2023/03/02 02:49:43;;;;;;;0.10;0.10;;;;;;;-3.76;63.83;99063.38;4997409;28;20148;-70
2023/03/02 02:52:13;;;;;;;0.10;0.10;;;;;;;-3.80;64.03;99062.13;5021906;28;20067;-70
2023/03/02 02:54:42;;;;;;;0.10;0.10;;;;;;;-3.83;64.06;99075.84;5015420;28;20049;-69
2023/03/02 02:57:11;;;;;;;0.10;0.10;;;;;;;-3.80;64.75;99061.28;5043732;28;20053;-69
2023/03/02 02:59:43;;;;;;;0.10;0.10;;;;;;;-3.85;64.49;99069.91;5017136;28;20045;-70
2023/03/02 03:02:16;;;;;;;0.10;0.10;;;;;;;-3.88;64.45;99075.63;5022109;28;20060;-70
2023/03/02 03:04:42;;;;;;;0.10;0.10;;;;;;;-3.91;64.60;99068.03;5034719;28;20046;-69
2023/03/02 03:07:15;;;;;;;0.10;0.10;;;;;;;-3.93;65.13;99086.91;5018505;28;20107;-73
2023/03/02 03:09:41;;;;;;;0.10;0.10;;;;;;;-3.93;65.37;99076.22;5044918;28;20071;-74
2023/03/02 03:12:14;;;;;;;0.10;0.10;;;;;;;-3.94;65.17;99071.09;5033695;28;20107;-73
2023/03/02 03:14:42;;;;;;;0.20;0.20;;;;;;;-3.96;65.51;99081.16;5014399;28;20118;-70
2023/03/02 03:17:12;;;;;;;0.10;0.10;;;;;;;-3.97;65.60;99076.84;5021415;28;20044;-70
2023/03/02 03:19:46;;;;;;;0.10;0.10;;;;;;;-3.97;65.90;99095.53;5010505;28;20328;-70
2023/03/02 03:22:14;;;;;;;0.10;0.10;;;;;;;-4.00;65.78;99092.22;4984762;28;20049;-70
2023/03/02 03:24:42;;;;;;;0.10;0.10;;;;;;;-4.07;65.65;99087.84;4988492;28;20084;-70
2023/03/02 03:27:10;;;;;;;0.10;0.10;;;;;;;-4.15;65.52;99078.16;5019435;28;20060;-70
2023/03/02 03:29:42;;;;;;;0.10;0.10;;;;;;;-4.09;65.70;99090.75;5019816;28;20042;-70
2023/03/02 03:32:11;;;;;;;0.10;0.10;;;;;;;-4.18;65.75;99076.72;5013639;28;20535;-70
2023/03/02 03:34:39;;;;;;;0.10;0.10;;;;;;;-4.21;65.95;99085.13;4997767;28;20528;-70
2023/03/02 03:37:13;;;;;;;0.10;0.10;;;;;;;-4.25;66.10;99091.06;5004139;28;20064;-70
2023/03/02 03:39:40;;;;;;;0.10;0.10;;;;;;;-4.34;66.32;99085.84;5009303;28;20091;-69
2023/03/02 03:42:07;;;;;;;0.20;0.20;;;;;;;-4.24;66.36;99082.03;5008080;28;20137;-70
2023/03/02 03:44:33;;;;;;;0.10;0.10;;;;;;;-4.24;65.95;99090.84;5023987;28;20053;-70
2023/03/02 03:47:02;;;;;;;0.10;0.10;;;;;;;-4.21;65.90;99090.47;5014842;28;20057;-70
2023/03/02 03:49:28;;;;;;;0.10;0.10;;;;;;;-4.16;65.94;99073.84;5023002;28;20564;-70
2023/03/02 03:51:55;;;;;;;0.10;0.10;;;;;;;-4.15;65.94;99070.16;5007414;28;20049;-70
2023/03/02 03:54:22;;;;;;;0.10;0.10;;;;;;;-4.08;65.82;99070.19;5017574;28;20109;-70
2023/03/02 03:56:49;;;;;;;0.10;0.10;;;;;;;-4.09;65.52;99064.03;4990227;28;20051;-70
2023/03/02 03:59:18;;;;;;;0.20;0.20;;;;;;;-4.07;65.58;99070.00;5035946;28;20068;-70
2023/03/02 04:01:58;;;;;;;0.10;0.10;;;;;;;-4.09;65.46;99063.19;5036271;28;20076;-70
2023/03/02 04:04:32;;;;;;;0.10;0.10;;;;;;;-4.04;65.48;99071.47;5018507;28;20057;-70
2023/03/02 04:07:00;;;;;;;0.10;0.10;;;;;;;-4.05;65.39;99069.81;5001530;28;20123;-69
2023/03/02 04:09:26;;;;;;;0.10;0.10;;;;;;;-4.10;65.29;99064.22;5036460;28;20081;-70
2023/03/02 04:11:55;;;;;;;0.10;0.10;;;;;;;-4.16;64.95;99069.34;5041290;28;20135;-70
2023/03/02 04:14:23;;;;;;;0.23;0.10;;;;;;;-4.16;64.82;99077.34;4995533;28;20091;-69
2023/03/02 04:16:50;;;;;;;0.10;0.10;;;;;;;-4.25;65.14;99073.16;5027518;28;20151;-69
2023/03/02 04:19:17;;;;;;;0.10;0.10;;;;;;;-4.28;65.39;99078.91;5002437;28;20136;-69
2023/03/02 04:21:50;;;;;;;0.10;0.10;;;;;;;-4.27;65.46;99091.22;5025860;28;20080;-69
2023/03/02 04:24:19;;;;;;;0.10;0.10;;;;;;;-4.21;65.25;99090.47;5041456;28;20367;-74
2023/03/02 04:26:47;;;;;;;0.10;0.10;;;;;;;-4.25;65.14;99091.84;5024729;28;20054;-73
2023/03/02 04:29:15;;;;;;;0.20;0.20;;;;;;;-4.35;65.21;99086.88;5014078;28;20540;-74
2023/03/02 04:31:41;;;;;;;0.10;0.10;;;;;;;-4.46;65.38;99088.25;5022561;28;20133;-74
2023/03/02 04:34:08;;;;;;;0.10;0.10;;;;;;;-4.40;65.34;99097.31;5018846;28;20516;-73
2023/03/02 04:36:38;;;;;;;0.10;0.10;;;;;;;-4.37;65.53;99104.94;5036302;28;20053;-73
2023/03/02 04:39:07;;;;;;;0.10;0.10;;;;;;;-4.32;65.49;99093.69;4992422;28;20540;-73
2023/03/02 04:41:34;;;;;;;0.10;0.10;;;;;;;-4.32;65.30;99089.16;4665593;28;10000375;-74
2023/03/02 04:44:00;;;;;;;0.10;0.10;;;;;;;-4.38;65.40;99102.44;5025586;28;20076;-73
2023/03/02 04:46:26;;;;;;;0.10;0.10;;;;;;;-4.34;65.39;99112.53;5032648;28;20056;-74
2023/03/02 04:48:53;;;;;;;0.10;0.10;;;;;;;-4.32;65.21;99107.84;5045651;28;20080;-74
2023/03/02 04:51:22;;;;;;;0.03;0.03;;;;;;;-4.26;65.12;99116.91;5041741;28;20039;-73
2023/03/02 04:53:49;;;;;;;0.10;0.10;;;;;;;-4.26;64.90;99135.59;4994730;28;20057;-73
2023/03/02 04:56:17;;;;;;;0.10;0.10;;;;;;;-4.25;65.13;99123.91;5024947;28;20041;-72
2023/03/02 04:58:42;;;;;;;;;;;;;;;-4.21;65.01;99135.03;5028770;28;20052;-74
2023/03/02 05:01:09;;;;;;;0.20;0.20;;;;;;;-4.20;64.91;99156.19;5043216;28;19985;-73
2023/03/02 05:03:35;;;;;;;0.10;0.10;;;;;;;-4.29;64.74;99133.31;4991088;28;20064;-74
2023/03/02 05:06:03;;;;;;;0.10;0.10;;;;;;;-4.32;64.87;99134.53;5028735;28;20053;-70
2023/03/02 05:08:29;;;;;;;0.10;0.10;;;;;;;-4.27;64.80;99148.13;5008577;28;20579;-70
2023/03/02 05:10:57;;;;;;;0.10;0.10;;;;;;;-4.27;64.60;99179.34;4994040;28;20140;-70
2023/03/02 05:13:24;;;;;;;0.10;0.10;;;;;;;-4.33;64.64;99164.09;5039289;28;20044;-69
2023/03/02 05:15:51;;;;;;;0.10;0.10;;;;;;;-4.31;64.84;99170.88;5030023;28;20061;-70
2023/03/02 05:18:18;;;;;;;0.10;0.10;;;;;;;-4.29;64.81;99186.72;5029235;28;20049;-69
2023/03/02 05:20:45;;;;;;;0.10;0.10;;;;;;;-4.27;64.82;99172.16;5028763;28;20603;-69
2023/03/02 05:23:33;;;;;;;0.10;0.10;;;;;;;-4.22;64.46;99182.25;5026082;28;20049;-69
2023/03/02 05:25:59;;;;;;;0.10;0.10;;;;;;;-4.15;64.08;99176.97;5038229;28;20041;-69
2023/03/02 05:28:27;;;;;;;0.10;0.10;;;;;;;-4.10;64.20;99179.91;5040285;28;20080;-73
2023/03/02 05:30:54;;;;;;;1.73;0.20;;;;;;;-4.11;63.77;99177.41;5044483;28;20147;-73
2023/03/02 05:33:22;;;;;;;0.10;0.10;;;;;;;-4.07;63.72;99168.81;5034257;28;20037;-73
2023/03/02 05:35:48;;;;;;;0.10;0.10;;;;;;;-4.00;63.82;99185.69;5031689;28;20585;-69
2023/03/02 05:38:15;;;;;;;0.10;0.10;;;;;;;-3.96;63.58;99185.34;5025150;28;20200;-70
2023/03/02 05:40:41;;;;;;;0.30;0.20;;;;;;;-4.02;63.00;99177.06;4996530;28;20156;-69
2023/03/02 05:43:08;;;;;;;0.10;0.10;;;;;;;-4.03;62.99;99174.59;5010875;28;20036;-70
2023/03/02 05:45:37;;;;;;;0.10;0.10;;;;;;;-4.00;62.80;99166.19;5028017;28;20098;-69
2023/03/02 05:48:04;;;;;;;0.10;0.10;;;;;;;-4.03;62.87;99169.25;5033206;28;20045;-69
2023/03/02 05:50:30;;;;;;;0.30;0.30;;;;;;;-4.06;62.82;99177.63;5034457;28;20556;-69
2023/03/02 05:52:58;;;;;;;0.10;0.10;;;;;;;-4.10;62.64;99174.56;5026422;28;20077;-69
2023/03/02 05:55:25;;;;;;;0.10;0.10;;;;;;;-4.09;63.01;99172.69;5034005;28;20053;-69
2023/03/02 05:57:52;;;;;;;0.10;0.10;;;;;;;-4.05;62.85;99180.13;5015635;28;20056;-70
2023/03/02 06:00:20;;;;;;;0.10;0.10;;;;;;;-3.99;62.83;99181.19;5014216;28;20056;-73
2023/03/02 06:02:47;;;;;;;0.10;0.10;;;;;;;-3.95;62.88;99179.78;5034729;28;20045;-73
2023/03/02 06:05:15;;;;;;;0.10;0.10;;;;;;;-3.87;62.58;99189.50;5026611;28;20913;-73
2023/03/02 06:07:41;;;;;;;;;;;;;;;-3.85;62.14;99188.28;4997738;28;20045;-73
2023/03/02 06:10:10;;;;;;;0.10;0.10;;;;;;;-3.81;61.96;99182.53;5009443;28;19924;-73
2023/03/02 06:12:37;;;;;;;0.10;0.10;;;;;;;-3.75;61.51;99189.75;5037922;28;20057;-73
2023/03/02 06:15:05;;;;;;;0.10;0.10;;;;;;;-3.67;61.44;99196.81;5032371;28;20075;-73
2023/03/02 06:17:35;;;;;;;0.10;0.10;;;;;;;-3.50;60.95;99205.34;5019933;28;20516;-72
2023/03/02 06:20:09;;;;;;;0.20;0.20;;;;;;;-3.47;60.48;99205.78;5040905;28;20045;-69
2023/03/02 06:22:37;;;;;;;0.10;0.10;;;;;;;-3.57;59.93;99192.78;5027650;28;20508;-69
2023/03/02 06:25:03;;;;;;;0.17;0.17;;;;;;;-3.63;60.32;99201.56;5028210;28;20067;-70
2023/03/02 06:27:30;;;;;;;0.10;0.10;;;;;;;-3.72;61.76;99200.09;5044802;28;20056;-69
2023/03/02 06:29:56;;;;;;;0.20;0.20;;;;;;;-3.83;62.85;99195.28;5029139;28;20053;-72
2023/03/02 06:32:22;;;;;;;0.10;0.10;;;;;;;-3.73;63.74;99206.44;5024907;28;20068;-73
2023/03/02 06:34:48;;;;;;;0.10;0.10;;;;;;;-3.88;64.44;99191.34;5045950;28;20147;-73
2023/03/02 06:37:15;;;;;;;0.20;0.20;;;;;;;-3.89;65.49;99197.72;5027243;28;20432;-73
2023/03/02 06:39:41;;;;;;;0.10;0.10;;;;;;;-3.88;66.27;99199.38;5027518;28;20045;-72
2023/03/02 06:42:07;;;;;;;0.10;0.10;;;;;;;-3.85;66.78;99200.81;5011652;28;20052;-73
2023/03/02 06:44:34;;;;;;;0.20;0.20;;;;;;;-3.86;66.65;99196.47;5026862;28;20050;-73
2023/03/02 06:47:00;;;;;;;0.20;0.20;;;;;;;-3.93;66.72;99199.09;5036966;28;20548;-73
2023/03/02 06:49:26;;;;;;;0.10;0.10;;;;;;;-3.86;66.76;99191.97;5009428;28;20049;-73
2023/03/02 06:51:52;;;;;;;0.10;0.10;;;;;;;-3.87;66.27;99186.81;5057205;28;20139;-72
2023/03/02 06:54:19;;;;;;;0.10;0.10;;;;;;;-3.79;66.63;99176.00;5063849;28;20563;-69
2023/03/02 06:56:45;;;;;;;1.00;0.30;;;;;;;-3.72;66.84;99189.41;5019652;28;20040;-69
2023/03/02 06:59:11;;;;;;;0.40;0.20;;;;;;;-3.56;66.06;99175.72;5042311;28;20045;-69
2023/03/02 07:01:37;;;;;;;0.20;0.20;;;;;;;-3.52;66.26;99181.47;5058805;28;20163;-69
2023/03/02 07:04:04;;;;;;;0.20;0.20;;;;;;;-3.53;65.60;99152.28;5030651;28;20533;-69
2023/03/02 07:06:31;;;;;;;0.30;0.30;;;;;;;-3.67;65.44;99125.47;5064017;28;20048;-70
2023/03/02 07:08:59;;;;;;;0.20;0.20;;;;;;;-3.35;65.21;99168.59;5051189;28;20071;-70
2023/03/02 07:11:27;;;;;;;0.10;0.10;;;;;;;-3.36;64.88;99176.81;5037433;28;20053;-70
2023/03/02 07:13:53;;;;;;;0.15;0.15;;;;;;;-3.32;64.55;99170.88;5049411;28;20539;-70
2023/03/02 07:16:19;;;;;;;0.13;0.13;;;;;;;-3.45;64.74;99181.50;5003401;28;20056;-70
2023/03/02 07:18:45;;;;;;;0.20;0.20;;;;;;;-3.70;65.47;99153.41;5021226;28;20045;-69
2023/03/02 07:21:11;;;;;;;0.20;0.20;;;;;;;-3.41;65.47;99166.75;5042097;28;20073;-70
2023/03/02 07:23:38;;;;;;;0.20;0.20;;;;;;;-3.07;64.51;99167.69;5024889;28;20055;-70
2023/03/02 07:26:07;;;;;;;0.20;0.20;;;;;;;-2.85;63.72;99173.72;5030449;28;20045;-70
2023/03/02 07:28:35;;;;;;;0.20;0.20;;;;;;;-2.80;63.01;99159.75;5054689;28;20082;-70
2023/03/02 07:31:01;;;;;;;0.20;0.20;;;;;;;-2.81;62.76;99171.47;5043841;28;20396;-70
2023/03/02 07:33:27;;;;;;;0.20;0.20;;;;;;;-2.83;62.46;99170.00;5029350;28;20045;-70
2023/03/02 07:35:53;;;;;;;0.20;0.20;;;;;;;-2.87;62.49;99173.09;5035385;28;20067;-70
2023/03/02 07:38:21;;;;;;;0.20;0.20;;;;;;;-2.83;62.57;99173.50;5037602;28;20054;-72
2023/03/02 07:40:47;;;;;;;0.10;0.10;;;;;;;-2.81;61.49;99176.81;4995080;28;20042;-73
2023/03/02 07:43:13;;;;;;;0.20;0.20;;;;;;;-2.83;60.81;99172.69;5009067;28;20049;-73
2023/03/02 07:45:41;;;;;;;0.10;0.10;;;;;;;-2.97;59.93;99174.47;4996440;28;20044;-73
2023/03/02 07:48:07;;;;;;;0.20;0.20;;;;;;;-3.06;60.29;99185.38;5058420;28;20143;-69
2023/03/02 07:50:33;;;;;;;0.10;0.10;;;;;;;-3.04;59.61;99177.16;5065412;28;20133;-70
2023/03/02 07:52:59;;;;;;;0.13;0.13;;;;;;;-3.03;59.55;99190.31;5067368;28;20048;-70
2023/03/02 07:55:26;;;;;;;0.10;0.10;;;;;;;-3.10;59.55;99196.69;5066778;28;20045;-69
2023/03/02 07:57:52;;;;;;;0.10;0.10;;;;;;;-3.11;59.79;99182.50;5063298;28;20055;-69
2023/03/02 08:00:19;;;;;;;0.27;0.27;;;;;;;-3.02;59.35;99191.97;5023706;28;20894;-70
2023/03/02 08:02:47;;;;;;;0.20;0.20;;;;;;;-2.89;58.65;99180.50;5022663;28;20061;-69
2023/03/02 08:05:14;;;;;;;0.20;0.20;;;;;;;-2.75;57.93;99177.84;5056116;28;20159;-73
2023/03/02 08:07:41;;;;;;;0.10;0.10;;;;;;;-2.73;57.65;99171.25;5030643;28;20045;-72
2023/03/02 08:10:08;;;;;;;0.43;0.22;;;;;;;-2.60;57.64;99165.09;5019966;28;20060;-73
2023/03/02 08:12:35;;;;;;;0.20;0.20;;;;;;;-2.42;56.81;99175.22;5024813;28;20128;-73
2023/03/02 08:15:01;;;;;;;0.20;0.20;;;;;;;-2.22;56.46;99177.06;5029113;28;20052;-72
2023/03/02 08:17:27;;;;;;;0.10;0.10;;;;;;;-2.07;55.74;99157.28;5047922;28;20060;-73
2023/03/02 08:19:54;;;;;;;0.20;0.20;;;;;;;-2.10;54.80;99152.34;5033156;28;20080;-72
2023/03/02 08:22:20;;;;;;;0.30;0.30;;;;;;;-2.12;54.54;99144.50;5049335;28;20485;-73
2023/03/02 08:24:47;;;;;;;0.30;0.30;;;;;;;-1.97;55.04;99140.78;5064977;28;20258;-73
2023/03/02 08:27:14;;;;;;;0.13;0.13;;;;;;;-1.83;54.32;99145.06;5064392;28;20063;-73
2023/03/02 08:29:40;;;;;;;0.10;0.10;;;;;;;-1.93;53.83;99137.47;5009336;28;20045;-73
2023/03/02 08:32:06;;;;;;;0.20;0.20;;;;;;;-2.11;54.18;99143.47;5004678;28;20057;-73
2023/03/02 08:34:32;;;;;;;0.32;0.30;;;;;;;-2.08;54.16;99150.28;5025810;28;20048;-70
2023/03/02 08:37:00;;;;;;;0.10;0.10;;;;;;;-1.97;53.87;99146.13;5006466;28;20056;-70
2023/03/02 08:39:29;;;;;;;0.20;0.20;;;;;;;-1.84;53.51;99148.00;5042683;28;20056;-73
2023/03/02 08:41:55;;;;;;;0.20;0.20;;;;;;;-1.85;53.35;99141.78;5012919;28;20051;-73
2023/03/02 08:44:21;;;;;;;0.13;0.13;;;;;;;-1.92;53.62;99157.88;5042449;28;20041;-72
2023/03/02 08:46:48;;;;;;;0.30;0.30;;;;;;;-2.03;53.77;99158.50;5028195;28;20052;-73
2023/03/02 08:49:14;;;;;;;0.20;0.20;;;;;;;-2.01;54.10;99146.56;5044672;28;20053;-69
2023/03/02 08:51:40;;;;;;;0.43;0.20;;;;;;;-1.93;53.84;99147.38;5052615;28;20049;-69
2023/03/02 08:54:09;;;;;;;0.25;0.25;;;;;;;-1.96;53.44;99150.47;5054920;28;20041;-73
2023/03/02 08:56:38;;;;;;;0.10;0.10;;;;;;;-2.03;53.58;99153.16;5054023;28;20162;-70
2023/03/02 08:59:06;;;;;;;0.20;0.20;;;;;;;-1.89;53.37;99148.59;5038641;28;20094;-70
2023/03/02 09:01:34;;;;;;;0.20;0.20;;;;;;;-1.79;53.16;99145.50;5027691;28;20501;-70
2023/03/02 09:04:01;;;;;;;0.20;0.20;;;;;;;-1.93;53.41;99158.91;5022033;28;20064;-70
2023/03/02 09:06:29;;;;;;;0.20;0.20;;;;;;;-2.07;53.54;99152.75;5040597;28;20296;-69
2023/03/02 09:08:56;;;;;;;0.20;0.20;;;;;;;-2.09;53.56;99165.53;5042039;28;20048;-70
2023/03/02 09:11:24;;;;;;;0.20;0.20;;;;;;;-2.26;53.93;99159.78;5046262;28;20048;-69
2023/03/02 09:13:50;;;;;;;0.20;0.20;;;;;;;-2.25;54.04;99155.25;5026222;28;20045;-69
2023/03/02 09:16:16;;;;;;;0.32;0.22;;;;;;;-2.26;54.34;99150.91;5050463;28;20041;-69
2023/03/02 09:18:42;;;;;;;0.10;0.10;;;;;;;-2.30;54.45;99161.22;5026560;28;20125;-69
2023/03/02 09:21:09;;;;;;;0.10;0.10;;;;;;;-2.51;54.85;99152.34;5047020;28;20135;-69
2023/03/02 09:23:35;;;;;;;0.20;0.20;;;;;;;-2.51;54.69;99141.63;5052724;28;20044;-70
2023/03/02 09:26:01;;;;;;;0.63;0.28;;;;;;;-2.43;54.84;99151.31;5047748;28;20060;-69
2023/03/02 09:28:30;;;;;;;0.20;0.20;;;;;;;-2.41;54.04;99143.91;5046705;28;20075;-69
2023/03/02 09:30:58;;;;;;;0.20;0.20;;;;;;;-2.54;54.21;99146.59;5023760;28;20053;-69
2023/03/02 09:33:24;;;;;;;0.30;0.30;;;;;;;-2.43;54.35;99143.28;5041211;28;20089;-69
2023/03/02 09:35:51;;;;;;;0.20;0.20;;;;;;;-2.39;54.15;99152.56;5024275;28;20044;-70
2023/03/02 09:38:17;;;;;;;0.50;0.23;;;;;;;-2.53;54.41;99134.84;5023555;28;20063;-70
2023/03/02 09:41:04;;;;;;;0.33;0.30;;;;;;;-2.15;53.98;99151.13;5051316;28;20048;-70
2023/03/02 09:43:43;;;;;;;0.30;0.30;;;;;;;-1.95;53.38;99150.25;5023190;28;20055;-70
2023/03/02 09:46:16;;;;;;;0.20;0.20;;;;;;;-1.76;52.70;99134.34;5015683;28;20303;-70
2023/03/02 09:48:58;;;;;;;0.20;0.20;;;;;;;-1.80;52.26;99125.88;5037144;28;20045;-69
2023/03/02 09:51:31;;;;;;;0.20;0.20;;;;;;;-1.82;52.53;99121.78;5046894;28;20434;-70
2023/03/02 09:54:07;;;;;;;0.20;0.20;;;;;;;-1.95;53.38;99115.44;5054639;28;20473;-70
2023/03/02 09:56:36;;;;;;;0.20;0.20;;;;;;;-2.26;53.72;99098.16;5031106;28;20062;-69
2023/03/02 09:59:12;;;;;;;0.20;0.20;;;;;;;-2.05;54.44;99112.34;5049067;28;20510;-70
2023/03/02 10:01:44;;;;;;;0.20;0.20;;;;;;;-1.90;53.64;99109.44;5050620;28;20463;-69
2023/03/02 10:04:20;;;;;;;0.20;0.20;;;;;;;-1.97;53.43;99097.91;5053212;28;20051;-69
2023/03/02 10:06:48;;;;;;;0.23;0.23;;;;;;;-2.23;53.90;99121.03;5052584;28;20059;-69
2023/03/02 10:09:14;;;;;;;0.20;0.20;;;;;;;-2.43;54.00;99103.94;5033532;28;20059;-69
2023/03/02 10:11:54;;;;;;;0.20;0.20;;;;;;;-2.42;54.04;99100.25;5034522;28;20048;-69
2023/03/02 10:14:25;;;;;;;0.20;0.20;;;;;;;-2.27;53.60;99101.88;5001386;28;20147;-70
2023/03/02 10:16:56;;;;;;;0.30;0.30;;;;;;;-2.14;52.98;99090.31;5042214;28;20105;-69
2023/03/02 10:19:27;;;;;;;0.30;0.30;;;;;;;-2.10;52.60;99085.38;5026936;28;20048;-70
2023/03/02 10:22:00;;;;;;;0.40;0.40;;;;;;;-1.97;52.11;99088.03;5057306;28;20157;-72
2023/03/02 10:24:32;;;;;;;0.20;0.20;;;;;;;-1.53;51.20;99082.09;5054320;28;20523;-72
2023/03/02 10:27:09;;;;;;;0.27;0.27;;;;;;;-1.49;51.37;99076.06;5031125;28;20051;-73
2023/03/02 10:29:48;;;;;;;0.20;0.20;;;;;;;-1.26;51.00;99073.91;5027736;28;20049;-70
2023/03/02 10:32:20;;;;;;;0.20;0.20;;;;;;;-1.10;50.97;99061.84;4987363;28;20041;-70
2023/03/02 10:34:48;;;;;;;0.37;0.30;;;;;;;-1.07;50.64;99064.94;5037644;28;20594;-69
2023/03/02 10:37:15;;;;;;;;;;;;;;;-1.24;51.06;99056.56;5029519;28;20283;-70
2023/03/02 10:39:42;;;;;;;0.30;0.30;;;;;;;-1.08;50.97;99065.13;5054215;28;19924;-69
2023/03/02 10:42:14;;;;;;;0.30;0.30;;;;;;;-0.80;49.92;99054.00;5038728;28;20447;-69
2023/03/02 10:44:46;;;;;;;0.30;0.30;;;;;;;-0.72;49.66;99056.41;5049153;28;20041;-72
2023/03/02 10:47:20;;;;;;;0.20;0.20;;;;;;;-1.06;50.08;99053.16;5064414;28;20083;-73
2023/03/02 10:49:47;;;;;;;0.30;0.30;;;;;;;-1.19;50.54;99055.94;5043959;28;20085;-72
2023/03/02 10:52:15;;;;;;;0.20;0.20;;;;;;;-1.32;51.12;99065.69;5056790;28;20516;-73
2023/03/02 10:54:41;;;;;;;0.30;0.30;;;;;;;-1.74;52.07;99041.97;5016160;28;20145;-73
2023/03/02 10:57:27;;;;;;;0.20;0.20;;;;;;;-2.03;52.12;99044.13;5057823;28;20047;-73
2023/03/02 10:59:59;;;;;;;0.20;0.20;;;;;;;-2.24;53.23;99037.16;5052191;28;20414;-72
2023/03/02 11:02:27;;;;;;;0.30;0.30;;;;;;;-2.10;53.49;99037.13;5030463;28;20072;-73
2023/03/02 11:04:55;;;;;;;0.20;0.20;;;;;;;-1.73;53.13;99032.06;5047485;28;20049;-73
2023/03/02 11:07:23;;;;;;;0.20;0.20;;;;;;;-1.44;52.75;99027.16;5058348;28;20513;-72
2023/03/02 11:10:01;;;;;;;0.20;0.20;;;;;;;-1.44;52.35;99019.13;5035433;28;20057;-72
2023/03/02 11:12:27;;;;;;;;;;;;;;;-1.38;52.33;99015.59;5027081;28;20073;-72
2023/03/02 11:15:20;;;;;;;0.27;0.27;;;;;;;-1.33;52.36;99012.25;5032321;28;19935;-73
2023/03/02 11:17:49;;;;;;;0.20;0.20;;;;;;;-1.52;51.70;99020.19;5053408;28;20044;-72
2023/03/02 11:20:22;;;;;;;0.20;0.20;;;;;;;-1.69;52.25;98976.16;5051237;28;20053;-72
2023/03/02 11:22:55;;;;;;;0.10;0.10;;;;;;;-1.71;52.82;99013.91;5056957;28;20055;-72
2023/03/02 11:25:27;;;;;;;0.20;0.20;;;;;;;-1.84;52.87;99003.25;5034734;28;20061;-72
2023/03/02 11:28:04;;;;;;;0.30;0.30;;;;;;;-1.79;53.03;98998.91;5048654;28;20058;-72
2023/03/02 11:30:35;;;;;;;0.30;0.30;;;;;;;-1.97;53.54;98980.84;5044326;28;20043;-73
2023/03/02 11:33:09;;;;;;;0.23;0.23;;;;;;;-1.80;52.93;98977.66;5035675;28;20429;-72
2023/03/02 11:35:43;;;;;;;0.30;0.30;;;;;;;-1.80;52.95;98962.38;5033119;28;20484;-73
2023/03/02 11:38:15;;;;;;;0.20;0.20;;;;;;;-1.68;52.40;98959.88;5055948;28;20103;-72
2023/03/02 11:40:45;;;;;;;0.20;0.20;;;;;;;-1.97;53.02;98963.91;5051462;28;20098;-72